createdAt,value
2017-10-11T00:00:50.687Z,23.57
2017-10-11T00:03:17.123Z,22.93
2017-10-11T00:05:43.557Z,23.20
2017-10-11T00:08:09.943Z,31.73
2017-10-11T00:10:36.425Z,26.80
2017-10-11T00:13:02.864Z,25.30
2017-10-11T00:15:30.116Z,25.93
2017-10-11T00:17:56.552Z,26.67
2017-10-11T00:20:23.076Z,22.73
2017-10-11T00:22:49.522Z,23.50
2017-10-11T00:25:15.909Z,20.53
2017-10-11T00:27:42.346Z,23.87
2017-10-11T00:30:08.826Z,24.03
2017-10-11T00:32:35.928Z,25.70
2017-10-11T00:35:02.516Z,26.00
2017-10-11T00:37:28.950Z,25.20
2017-10-11T00:39:55.388Z,21.90
2017-10-11T00:42:21.819Z,29.03
2017-10-11T00:44:48.255Z,29.53
2017-10-11T00:47:14.791Z,29.10
2017-10-11T00:49:41.902Z,29.13
2017-10-11T00:52:08.376Z,29.30
2017-10-11T00:54:34.811Z,29.60
2017-10-11T00:57:01.247Z,31.80
2017-10-11T00:59:27.682Z,29.37
2017-10-11T01:01:54.116Z,26.40
2017-10-11T01:04:20.556Z,28.67
2017-10-11T01:06:47.806Z,31.10
2017-10-11T01:09:14.240Z,23.77
2017-10-11T01:11:40.675Z,29.67
2017-10-11T01:14:07.056Z,23.70
2017-10-11T01:16:33.523Z,25.53
2017-10-11T01:18:59.965Z,22.13
2017-10-11T01:21:26.409Z,27.47
2017-10-11T01:23:53.670Z,27.23
2017-10-11T01:26:20.103Z,27.43
2017-10-11T01:28:46.538Z,24.57
2017-10-11T01:31:12.974Z,26.67
2017-10-11T01:33:39.409Z,25.33
2017-10-11T01:36:05.844Z,27.27
2017-10-11T01:38:32.277Z,23.90
2017-10-11T01:40:59.429Z,26.90
2017-10-11T01:43:25.877Z,28.77
2017-10-11T01:45:52.403Z,23.43
2017-10-11T01:48:18.835Z,22.37
2017-10-11T01:50:45.223Z,23.77
2017-10-11T01:53:11.721Z,27.10
2017-10-11T01:55:38.139Z,24.30
2017-10-11T01:58:05.413Z,22.33
2017-10-11T02:00:31.829Z,22.00
2017-10-11T02:02:58.215Z,21.53
2017-10-11T02:05:24.595Z,23.80
2017-10-11T02:07:51.029Z,25.20
2017-10-11T02:10:17.469Z,25.57
2017-10-11T02:12:43.901Z,26.00
2017-10-11T02:15:11.050Z,27.30
2017-10-11T02:17:37.485Z,29.53
2017-10-11T02:20:03.876Z,24.90
2017-10-11T02:22:30.343Z,23.97
2017-10-11T02:24:56.782Z,22.90
2017-10-11T02:27:23.327Z,26.90
2017-10-11T02:29:49.762Z,24.20
2017-10-11T02:32:16.914Z,20.53
2017-10-11T02:34:43.348Z,22.50
2017-10-11T02:37:09.785Z,24.07
2017-10-11T02:39:36.217Z,25.83
2017-10-11T02:42:02.653Z,24.00
2017-10-11T02:44:29.095Z,22.23
2017-10-11T02:46:55.521Z,19.10
2017-10-11T02:49:22.577Z,19.53
2017-10-11T02:51:49.006Z,28.23
2017-10-11T02:54:15.442Z,22.30
2017-10-11T02:56:41.858Z,33.63
2017-10-11T02:59:08.310Z,20.10
2017-10-11T03:01:34.695Z,19.77
2017-10-11T03:04:01.159Z,17.57
2017-10-11T03:06:28.331Z,26.70
2017-10-11T03:08:54.785Z,17.80
2017-10-11T03:11:21.200Z,16.60
2017-10-11T03:13:47.654Z,19.73
2017-10-11T03:16:14.071Z,29.20
2017-10-11T03:18:40.505Z,24.40
2017-10-11T03:21:06.940Z,29.83
2017-10-11T03:23:34.092Z,22.10
2017-10-11T03:26:00.530Z,29.57
2017-10-11T03:28:27.063Z,23.40
2017-10-11T03:30:53.499Z,28.30
2017-10-11T03:33:19.904Z,23.73
2017-10-11T03:35:46.367Z,21.93
2017-10-11T03:38:12.802Z,20.33
2017-10-11T03:40:39.903Z,29.60
2017-10-11T03:43:06.395Z,19.30
2017-10-11T03:45:32.826Z,26.40
2017-10-11T03:47:59.259Z,18.50
2017-10-11T03:50:25.712Z,21.03
2017-10-11T03:52:52.127Z,21.90
2017-10-11T03:55:18.562Z,19.10
2017-10-11T03:57:45.816Z,25.30
2017-10-11T04:00:12.255Z,22.17
2017-10-11T04:02:38.686Z,22.33
2017-10-11T04:05:05.139Z,19.77
2017-10-11T04:07:31.554Z,18.63
2017-10-11T04:09:57.990Z,22.80
2017-10-11T04:12:24.386Z,23.80
2017-10-11T04:14:51.628Z,20.40
2017-10-11T04:17:18.112Z,19.07
2017-10-11T04:19:44.548Z,18.63
2017-10-11T04:22:10.982Z,24.80
2017-10-11T04:24:37.418Z,32.67
2017-10-11T04:27:03.854Z,24.23
2017-10-11T04:29:30.292Z,22.23
2017-10-11T04:31:57.438Z,22.03
2017-10-11T04:34:23.877Z,23.10
2017-10-11T04:36:50.308Z,24.87
2017-10-11T04:39:16.743Z,28.30
2017-10-11T04:41:43.179Z,30.83
2017-10-11T04:44:09.632Z,28.03
2017-10-11T04:46:36.049Z,22.00
2017-10-11T04:49:03.322Z,32.43
2017-10-11T04:51:29.737Z,24.37
2017-10-11T04:53:56.171Z,24.53
2017-10-11T04:56:22.556Z,23.53
2017-10-11T04:58:49.040Z,19.90
2017-10-11T05:01:15.482Z,23.67
2017-10-11T05:03:42.015Z,22.77
2017-10-11T05:06:08.808Z,19.93
2017-10-11T05:08:35.704Z,27.27
2017-10-11T05:11:02.404Z,33.13
2017-10-11T05:13:28.877Z,23.83
2017-10-11T05:15:55.312Z,28.57
2017-10-11T05:18:22.262Z,39.73
2017-10-11T05:20:48.797Z,30.00
2017-10-11T05:23:15.232Z,42.83
2017-10-11T05:25:41.608Z,27.40
2017-10-11T05:28:08.511Z,29.63
2017-10-11T05:30:35.042Z,27.47
2017-10-11T05:33:01.400Z,26.50
2017-10-11T05:35:27.922Z,31.00
2017-10-11T05:37:54.352Z,21.27
2017-10-11T05:40:20.786Z,15.67
2017-10-11T05:42:47.172Z,24.67
2017-10-11T05:45:13.520Z,17.90
2017-10-11T05:47:39.939Z,26.17
2017-10-11T05:50:06.535Z,19.87
2017-10-11T05:52:32.967Z,18.27
2017-10-11T05:54:59.395Z,32.13
2017-10-11T05:57:26.031Z,34.63
2017-10-11T05:59:52.469Z,20.23
2017-10-11T06:02:19.211Z,18.67
2017-10-11T06:04:45.751Z,14.67
2017-10-11T06:07:12.185Z,14.70
2017-10-11T06:09:38.825Z,14.57
2017-10-11T06:12:05.364Z,17.53
2017-10-11T06:14:31.898Z,22.27
2017-10-11T06:16:59.308Z,16.13
2017-10-11T06:19:25.890Z,29.43
2017-10-11T06:21:52.331Z,21.40
2017-10-11T06:24:19.253Z,19.93
2017-10-11T06:26:45.735Z,22.33
2017-10-11T06:29:12.350Z,22.13
2017-10-11T06:31:38.886Z,23.77
2017-10-11T06:34:05.321Z,24.20
2017-10-11T06:36:31.913Z,23.40
2017-10-11T06:38:58.406Z,24.30
2017-10-11T06:41:25.026Z,23.17
2017-10-11T06:43:51.469Z,18.63
2017-10-11T06:46:18.161Z,25.30
2017-10-11T06:48:44.649Z,23.20
2017-10-11T06:51:11.243Z,22.47
2017-10-11T06:53:38.330Z,25.03
2017-10-11T06:56:04.769Z,22.83
2017-10-11T06:58:31.204Z,18.70
2017-10-11T07:00:57.741Z,17.77
2017-10-11T07:03:24.175Z,15.53
2017-10-11T07:05:50.717Z,16.23
2017-10-11T07:08:17.551Z,19.73
2017-10-11T07:10:43.936Z,19.40
2017-10-11T07:13:10.324Z,21.10
2017-10-11T07:15:36.672Z,19.40
2017-10-11T07:18:03.092Z,20.40
2017-10-11T07:20:29.734Z,22.23
2017-10-11T07:22:56.784Z,21.43
2017-10-11T07:25:23.530Z,25.83
2017-10-11T07:27:49.911Z,22.30
2017-10-11T07:30:16.392Z,20.07
2017-10-11T07:32:43.434Z,18.47
2017-10-11T07:35:09.877Z,24.00
2017-10-11T07:37:36.298Z,22.37
2017-10-11T07:40:03.054Z,19.03
2017-10-11T07:42:29.592Z,21.07
2017-10-11T07:44:55.979Z,18.60
2017-10-11T07:47:23.896Z,24.87
2017-10-11T07:49:50.329Z,23.93
2017-10-11T07:52:16.864Z,21.50
2017-10-11T07:54:43.299Z,22.40
2017-10-11T07:57:09.838Z,24.27
2017-10-11T07:59:36.275Z,20.13
2017-10-11T08:02:02.844Z,22.10
2017-10-11T08:04:29.346Z,22.53
2017-10-11T08:06:55.883Z,21.93
2017-10-11T08:09:22.771Z,27.57
2017-10-11T08:11:49.367Z,25.27
2017-10-11T08:14:15.881Z,18.30
2017-10-11T08:16:42.646Z,22.13
2017-10-11T08:19:09.183Z,21.10
2017-10-11T08:21:35.721Z,17.00
2017-10-11T08:24:02.564Z,30.80
2017-10-11T08:26:29.102Z,18.23
2017-10-11T08:28:55.639Z,17.43
2017-10-11T08:31:22.279Z,17.30
2017-10-11T08:33:48.997Z,17.50
2017-10-11T08:36:15.456Z,23.97
2017-10-11T08:38:42.081Z,20.67
2017-10-11T08:41:09.392Z,19.57
2017-10-11T08:43:35.942Z,25.43
2017-10-11T08:46:02.525Z,15.23
2017-10-11T08:48:29.371Z,17.43
2017-10-11T08:50:55.961Z,18.47
2017-10-11T08:53:22.784Z,13.57
2017-10-11T08:55:49.698Z,15.77
2017-10-11T08:58:16.337Z,12.83
2017-10-11T09:00:43.081Z,15.17
2017-10-11T09:03:09.610Z,14.23
2017-10-11T09:05:36.252Z,11.47
2017-10-11T09:08:03.193Z,16.53
2017-10-11T09:10:29.946Z,10.90
2017-10-11T09:12:56.708Z,10.60
2017-10-11T09:15:23.421Z,16.73
2017-10-11T09:17:49.865Z,10.83
2017-10-11T09:20:16.400Z,10.30
2017-10-11T09:22:43.553Z,14.50
2017-10-11T09:25:09.969Z,14.43
2017-10-11T09:27:36.531Z,10.60
2017-10-11T09:30:03.352Z,16.10
2017-10-11T09:32:29.907Z,15.10
2017-10-11T09:34:56.571Z,13.93
2017-10-11T09:37:23.779Z,11.27
2017-10-11T09:39:50.445Z,11.90
2017-10-11T09:42:17.389Z,10.53
2017-10-11T09:44:43.823Z,13.17
2017-10-11T09:47:10.434Z,13.27
2017-10-11T09:49:37.105Z,23.80
2017-10-11T09:52:04.383Z,20.00
2017-10-11T09:54:31.199Z,12.13
2017-10-11T09:56:58.027Z,14.97
2017-10-11T09:59:25.194Z,12.90
2017-10-11T10:01:51.836Z,19.87
2017-10-11T10:04:21.342Z,13.60
2017-10-11T10:06:48.352Z,14.50
2017-10-11T10:09:14.928Z,12.87
2017-10-11T10:11:41.464Z,14.93
2017-10-11T10:14:08.103Z,10.90
2017-10-11T10:16:35.479Z,10.50
2017-10-11T10:19:03.431Z,14.40
2017-10-11T10:21:30.653Z,13.00
2017-10-11T10:23:57.344Z,15.20
2017-10-11T10:26:24.474Z,24.60
2017-10-11T10:28:51.328Z,14.47
2017-10-11T10:31:18.273Z,12.83
2017-10-11T10:33:44.846Z,13.90
2017-10-11T10:36:12.169Z,19.80
2017-10-11T10:38:40.457Z,18.77
2017-10-11T10:41:08.465Z,9.20
2017-10-11T10:43:35.665Z,13.30
2017-10-11T10:46:02.099Z,14.20
2017-10-11T10:48:28.640Z,11.10
2017-10-11T10:51:02.188Z,37.80
2017-10-11T10:53:29.275Z,12.00
2017-10-11T10:55:56.135Z,13.90
2017-10-11T10:58:22.772Z,11.47
2017-10-11T11:00:49.617Z,13.20
2017-10-11T11:03:16.154Z,13.93
2017-10-11T11:05:42.800Z,15.63
2017-10-11T11:08:09.595Z,9.47
2017-10-11T11:10:36.129Z,12.30
2017-10-11T11:13:02.714Z,8.07
2017-10-11T11:15:29.147Z,13.80
2017-10-11T11:17:55.559Z,6.60
2017-10-11T11:20:21.930Z,10.10
2017-10-11T11:22:48.840Z,9.13
2017-10-11T11:25:15.284Z,6.13
2017-10-11T11:27:41.733Z,8.67
2017-10-11T11:30:08.372Z,10.87
2017-10-11T11:32:34.907Z,7.30
2017-10-11T11:35:01.344Z,8.00
2017-10-11T11:37:27.778Z,6.47
2017-10-11T11:39:54.212Z,5.37
2017-10-11T11:42:21.363Z,4.97
2017-10-11T11:44:47.798Z,5.73
2017-10-11T11:47:14.293Z,5.47
2017-10-11T11:49:40.671Z,5.03
2017-10-11T11:52:08.441Z,5.40
2017-10-11T11:54:34.929Z,5.50
2017-10-11T11:57:01.406Z,4.63
2017-10-11T11:59:28.353Z,5.30
2017-10-11T12:01:54.891Z,5.30
2017-10-11T12:04:21.324Z,5.37
2017-10-11T12:06:47.777Z,5.23
2017-10-11T12:09:14.773Z,5.70
2017-10-11T12:11:42.369Z,6.80
2017-10-11T12:14:08.753Z,5.10
2017-10-11T12:16:35.225Z,5.13
2017-10-11T12:19:01.673Z,5.10
2017-10-11T12:21:28.199Z,5.13
2017-10-11T12:23:54.645Z,4.93
2017-10-11T12:26:21.079Z,4.93
2017-10-11T12:28:47.516Z,5.33
2017-10-11T12:31:14.006Z,3.90
2017-10-11T12:33:40.487Z,6.23
2017-10-11T12:36:06.921Z,5.40
2017-10-11T12:38:34.587Z,4.90
2017-10-11T12:41:01.155Z,4.17
2017-10-11T12:43:27.760Z,4.53
2017-10-11T12:45:54.167Z,4.57
2017-10-11T12:48:21.041Z,4.50
2017-10-11T12:50:47.476Z,6.93
2017-10-11T12:53:14.321Z,6.17
2017-10-11T12:55:40.758Z,4.90
2017-10-11T12:58:07.189Z,4.33
2017-10-11T13:00:34.136Z,4.80
2017-10-11T13:03:00.695Z,4.80
2017-10-11T13:05:27.199Z,4.80
2017-10-11T13:07:53.957Z,4.97
2017-10-11T13:10:20.389Z,5.17
2017-10-11T13:12:47.950Z,5.00
2017-10-11T13:15:15.000Z,8.97
2017-10-11T13:17:41.415Z,4.87
2017-10-11T13:20:07.790Z,5.03
2017-10-11T13:22:34.603Z,4.90
2017-10-11T13:25:01.044Z,6.13
2017-10-11T13:27:27.462Z,5.60
2017-10-11T13:29:53.906Z,6.07
2017-10-11T13:32:20.451Z,6.70
2017-10-11T13:34:47.398Z,6.10
2017-10-11T13:37:13.832Z,9.00
2017-10-11T13:39:40.268Z,5.97
2017-10-11T13:42:07.521Z,5.60
2017-10-11T13:44:34.009Z,5.50
2017-10-11T13:47:00.601Z,5.80
2017-10-11T13:49:27.440Z,15.50
2017-10-11T13:51:54.052Z,8.10
2017-10-11T13:54:20.606Z,5.40
2017-10-11T13:56:47.507Z,5.90
2017-10-11T13:59:14.614Z,6.77
2017-10-11T14:01:41.456Z,6.43
2017-10-11T14:04:07.950Z,5.80
2017-10-11T14:06:34.428Z,6.60
2017-10-11T14:09:00.863Z,7.70
2017-10-11T14:11:27.298Z,5.30
2017-10-11T14:13:53.732Z,5.80
2017-10-11T14:16:21.194Z,5.70
2017-10-11T14:18:48.815Z,8.43
2017-10-11T14:21:15.501Z,8.90
2017-10-11T14:23:41.936Z,5.33
2017-10-11T14:26:08.430Z,5.10
2017-10-11T14:28:35.916Z,6.80
2017-10-11T14:31:04.146Z,6.07
2017-10-11T14:33:31.509Z,6.07
2017-10-11T14:35:57.949Z,6.20
2017-10-11T14:38:24.737Z,6.10
2017-10-11T14:40:51.179Z,6.17
2017-10-11T14:43:18.177Z,10.57
2017-10-11T14:45:44.662Z,7.07
2017-10-11T14:48:11.300Z,6.63
2017-10-11T14:50:37.731Z,6.50
2017-10-11T14:53:04.085Z,6.50
2017-10-11T14:55:31.011Z,6.43
2017-10-11T14:57:57.396Z,9.23
2017-10-11T15:00:23.880Z,10.30
2017-10-11T15:02:50.493Z,14.60
2017-10-11T15:05:16.952Z,6.90
2017-10-11T15:07:43.389Z,9.20
2017-10-11T15:10:10.130Z,6.10
2017-10-11T15:12:36.667Z,26.03
2017-10-11T15:15:03.102Z,8.10
2017-10-11T15:17:29.537Z,8.50
2017-10-11T15:19:56.074Z,11.17
2017-10-11T15:22:22.508Z,11.77
2017-10-11T15:24:48.897Z,17.30
2017-10-11T15:27:15.378Z,14.13
2017-10-11T15:29:41.812Z,12.80
2017-10-11T15:32:08.249Z,15.93
2017-10-11T15:34:34.718Z,20.90
2017-10-11T15:37:01.095Z,24.80
2017-10-11T15:39:28.262Z,46.83
2017-10-11T15:41:54.710Z,19.67
2017-10-11T15:44:21.124Z,32.40
2017-10-11T15:46:47.573Z,22.10
2017-10-11T15:49:14.008Z,19.43
2017-10-11T15:51:40.442Z,18.20
2017-10-11T15:54:06.883Z,29.77
2017-10-11T15:56:33.270Z,15.93
2017-10-11T15:58:59.770Z,14.27
2017-10-11T16:01:26.182Z,12.13
2017-10-11T16:03:52.616Z,20.17
2017-10-11T16:06:19.051Z,25.20
2017-10-11T16:08:45.436Z,21.60
2017-10-11T16:11:11.895Z,21.57
2017-10-11T16:13:38.335Z,29.67
2017-10-11T16:16:04.778Z,21.57
2017-10-11T16:18:31.327Z,20.90
2017-10-11T16:20:57.716Z,22.67
2017-10-11T16:23:24.197Z,23.90
2017-10-11T16:25:50.632Z,15.40
2017-10-11T16:28:17.023Z,12.90
2017-10-11T16:30:43.501Z,12.87
2017-10-11T16:33:09.939Z,19.77
2017-10-11T16:35:36.382Z,15.83
2017-10-11T16:38:03.610Z,15.60
2017-10-11T16:40:30.061Z,13.57
2017-10-11T16:42:56.598Z,13.43
2017-10-11T16:45:23.032Z,15.73
2017-10-11T16:47:49.466Z,20.00
2017-10-11T16:50:15.856Z,24.20
2017-10-11T16:52:42.319Z,24.93
2017-10-11T16:55:09.485Z,23.23
2017-10-11T16:57:35.942Z,20.53
2017-10-11T17:00:02.357Z,47.67
2017-10-11T17:02:28.794Z,28.90
2017-10-11T17:04:55.179Z,31.53
2017-10-11T17:07:21.662Z,28.10
2017-10-11T17:09:48.096Z,22.03
2017-10-11T17:12:15.247Z,30.07
2017-10-11T17:14:41.685Z,29.63
2017-10-11T17:17:08.139Z,28.80
2017-10-11T17:19:34.552Z,25.77
2017-10-11T17:22:01.102Z,30.50
2017-10-11T17:24:27.526Z,29.97
2017-10-11T17:26:53.960Z,37.33
2017-10-11T17:29:21.110Z,37.63
2017-10-11T17:31:47.546Z,25.67
2017-10-11T17:34:13.949Z,33.40
2017-10-11T17:36:40.408Z,27.37
2017-10-11T17:39:06.851Z,31.13
2017-10-11T17:41:33.283Z,24.40
2017-10-11T17:43:59.672Z,24.80
2017-10-11T17:46:26.802Z,32.23
2017-10-11T17:48:53.306Z,26.10
2017-10-11T17:51:19.742Z,21.97
2017-10-11T17:53:46.175Z,21.53
2017-10-11T17:56:12.712Z,23.93
2017-10-11T17:58:39.149Z,23.53
2017-10-11T18:01:05.582Z,24.20
2017-10-11T18:03:32.852Z,25.30
2017-10-11T18:05:59.274Z,18.57
2017-10-11T18:08:25.662Z,18.83
2017-10-11T18:10:52.128Z,19.67
2017-10-11T18:13:18.571Z,16.50
2017-10-11T18:15:45.011Z,13.80
2017-10-11T18:18:11.444Z,20.27
2017-10-11T18:20:38.589Z,16.90
2017-10-11T18:23:05.031Z,21.27
2017-10-11T18:25:31.465Z,20.63
2017-10-11T18:27:57.901Z,17.70
2017-10-11T18:30:24.335Z,18.90
2017-10-11T18:32:50.770Z,17.63
2017-10-11T18:35:17.204Z,15.40
2017-10-11T18:37:44.357Z,17.30
2017-10-11T18:40:10.810Z,15.83
2017-10-11T18:42:37.225Z,25.07
2017-10-11T18:45:03.660Z,21.07
2017-10-11T18:47:30.094Z,26.77
2017-10-11T18:49:56.530Z,23.07
2017-10-11T18:52:22.964Z,20.27
2017-10-11T18:54:50.220Z,29.53
2017-10-11T18:57:16.612Z,23.90
2017-10-11T18:59:43.089Z,21.13
2017-10-11T19:02:09.524Z,26.90
2017-10-11T19:04:35.959Z,22.10
2017-10-11T19:07:02.393Z,23.00
2017-10-11T19:09:28.828Z,21.83
2017-10-11T19:11:56.083Z,23.40
2017-10-11T19:14:22.516Z,23.27
2017-10-11T19:16:48.903Z,19.13
2017-10-11T19:19:15.385Z,17.13
2017-10-11T19:21:41.820Z,26.93
2017-10-11T19:24:08.208Z,19.63
2017-10-11T19:26:34.689Z,29.27
2017-10-11T19:29:01.841Z,28.90
2017-10-11T19:31:28.275Z,28.97
2017-10-11T19:33:54.643Z,28.27
2017-10-11T19:36:21.145Z,23.70
2017-10-11T19:38:47.579Z,24.37
2017-10-11T19:41:13.969Z,26.17
2017-10-11T19:43:40.451Z,27.67
2017-10-11T19:46:07.705Z,28.23
2017-10-11T19:48:34.140Z,28.80
2017-10-11T19:51:00.575Z,25.90
2017-10-11T19:53:27.007Z,27.83
2017-10-11T19:55:53.443Z,25.80
2017-10-11T19:58:19.878Z,24.83
2017-10-11T20:00:46.312Z,22.73
2017-10-11T20:03:13.463Z,26.00
2017-10-11T20:05:39.898Z,24.60
2017-10-11T20:08:06.334Z,24.83
2017-10-11T20:10:32.769Z,23.40
2017-10-11T20:12:59.203Z,24.40
2017-10-11T20:15:25.637Z,32.20
2017-10-11T20:17:52.094Z,29.13
2017-10-11T20:20:19.227Z,24.80
2017-10-11T20:22:45.660Z,24.77
2017-10-11T20:25:12.043Z,33.83
2017-10-11T20:27:38.530Z,23.03
2017-10-11T20:30:04.963Z,23.83
2017-10-11T20:32:31.398Z,28.53
2017-10-11T20:34:57.829Z,26.30
2017-10-11T20:37:24.946Z,25.70
2017-10-11T20:39:51.414Z,25.37
2017-10-11T20:42:17.853Z,31.70
2017-10-11T20:44:44.289Z,34.80
2017-10-11T20:47:10.755Z,27.63
2017-10-11T20:49:37.265Z,24.77
2017-10-11T20:52:03.675Z,27.43
2017-10-11T20:54:30.949Z,29.97
2017-10-11T20:56:57.384Z,23.43
2017-10-11T20:59:23.819Z,28.53
2017-10-11T21:01:50.254Z,32.00
2017-10-11T21:04:16.688Z,26.23
2017-10-11T21:06:43.124Z,28.00
2017-10-11T21:09:09.557Z,29.27
2017-10-11T21:11:36.813Z,23.00
2017-10-11T21:14:03.350Z,25.43
2017-10-11T21:16:29.873Z,33.20
2017-10-11T21:18:56.320Z,27.63
2017-10-11T21:21:22.756Z,33.57
2017-10-11T21:23:49.193Z,30.60
2017-10-11T21:26:15.626Z,25.17
2017-10-11T21:28:42.798Z,25.60
2017-10-11T21:31:09.212Z,28.80
2017-10-11T21:33:35.647Z,26.70
2017-10-11T21:36:02.085Z,28.70
2017-10-11T21:38:28.503Z,30.97
2017-10-11T21:40:54.951Z,34.20
2017-10-11T21:43:21.386Z,26.03
2017-10-11T21:45:48.639Z,31.43
2017-10-11T21:48:15.074Z,31.70
2017-10-11T21:50:41.509Z,28.97
2017-10-11T21:53:07.964Z,26.33
2017-10-11T21:55:34.382Z,28.83
2017-10-11T21:58:00.816Z,24.80
2017-10-11T22:00:27.335Z,33.90
2017-10-11T22:02:54.478Z,31.80
2017-10-11T22:05:20.940Z,33.07
2017-10-11T22:07:47.372Z,32.10
2017-10-11T22:10:13.809Z,35.33
2017-10-11T22:12:40.295Z,30.00
2017-10-11T22:15:06.780Z,29.20
2017-10-11T22:17:33.214Z,31.97
2017-10-11T22:20:00.470Z,29.40
2017-10-11T22:22:26.902Z,36.80
2017-10-11T22:24:53.439Z,29.67
2017-10-11T22:27:19.875Z,31.83
2017-10-11T22:29:46.309Z,32.33
2017-10-11T22:32:12.744Z,29.10
2017-10-11T22:34:39.209Z,30.13
2017-10-11T22:37:06.273Z,29.13
2017-10-11T22:39:32.663Z,28.03
2017-10-11T22:41:59.098Z,30.07
2017-10-11T22:44:25.533Z,31.43
2017-10-11T22:46:51.991Z,29.00
2017-10-11T22:49:18.506Z,26.97
2017-10-11T22:51:44.939Z,30.40
2017-10-11T22:54:12.091Z,27.20
2017-10-11T22:56:38.475Z,27.23
2017-10-11T22:59:04.857Z,34.10
2017-10-11T23:01:31.317Z,27.53
2017-10-11T23:03:57.729Z,29.70
2017-10-11T23:06:24.109Z,28.00
2017-10-11T23:08:50.548Z,29.37
2017-10-11T23:11:17.741Z,31.73
2017-10-11T23:13:44.184Z,27.40
2017-10-11T23:16:10.576Z,32.50
2017-10-11T23:18:37.004Z,30.57
2017-10-11T23:21:03.451Z,28.73
2017-10-11T23:23:29.924Z,30.20
2017-10-11T23:25:56.357Z,27.93
2017-10-11T23:28:23.611Z,29.33
2017-10-11T23:30:50.046Z,27.87
2017-10-11T23:33:16.481Z,34.70
2017-10-11T23:35:42.918Z,25.60
2017-10-11T23:38:09.350Z,28.40
2017-10-11T23:40:35.786Z,32.70
2017-10-11T23:43:02.220Z,30.50
2017-10-11T23:45:29.473Z,30.73
2017-10-11T23:47:55.964Z,31.07
2017-10-11T23:50:22.445Z,26.93
2017-10-11T23:52:48.882Z,23.83
2017-10-11T23:55:15.418Z,28.40
2017-10-11T23:57:41.872Z,27.43
